Airfield :







YOU CAN JOIN US ON...

 
LOGIN :

Register | Disclaimer

   EN    FR    IT 

 









Legend :    VFR   Marginal VFR   IFR   Intensive IFR   Very Intensive IFR
Visi :
Ceiling :
>= 8 km
>= 3000ft
5 to 8 km
1000 to 3000 ft
1500m to 5 km
500 to 1000 ft
800 to 1500m
200 to 500 ft
< 800m
< 200 ft
Symbols :   Thunderstorms  Fog  Heavy snow  Heavy precipitations  Wind > 20 kt






- Airport Elevation : 73 ft
- IATA code : DOM


TDPD - Melville Hall

CURRENT METAR :
  • 241700Z 15007KT 9999 BKN020 BKN038 28/22 Q1016

EXPIRED METARs :
  • 241600Z 17004KT 9999 FEW018 BKN036 28/22 Q1016
  • 241500Z 15006KT 9999 SCT016 BKN034 27/23 Q1017

TAF TAF TDPD
Valid from the 24 at 18:00 until the 25 at 18:00 UTC


241700Z 2418/2518 13010KT 9999 SCT020
TEMPO 2418/2421 5000 SHRA BKN014 BKN036



MET'MAP, your aeronautical weather chart ! - Copyright ORBIFLY December 2007 - Disclaimer

ORBIFLY MET'MAP TEAM :

Programming & Development : Alexandra Zaïnal
Concept & original design : Baudouin d'Aumeries
Assistance for programming : Marc-Olivier Méhu
Technical & hardware support : Manuel Goepfert

Contact : metmap@orbifly.com




SOURCES & CREDITS :

   NOAA